sensor_id;sensor_type;location;lat;lon;timestamp;pressure;altitude;pressure_sealevel;temperature;humidity
40245;BME280;25963;42.694;23.600;2023-05-24T00:00:53;94989.34;;;11.46;100.00
40245;BME280;25963;42.694;23.600;2023-05-24T00:03:31;94971.63;;;11.23;100.00
40245;BME280;25963;42.694;23.600;2023-05-24T00:08:37;94964.59;;;11.16;100.00
40245;BME280;25963;42.694;23.600;2023-05-24T00:11:03;95020.13;;;11.40;100.00
40245;BME280;25963;42.694;23.600;2023-05-24T00:13:28;95008.34;;;11.24;100.00
40245;BME280;25963;42.694;23.600;2023-05-24T00:15:54;95011.38;;;11.39;100.00
40245;BME280;25963;42.694;23.600;2023-05-24T00:18:19;95016.22;;;11.12;100.00
40245;BME280;25963;42.694;23.600;2023-05-24T00:20:44;95012.47;;;11.20;100.00
40245;BME280;25963;42.694;23.600;2023-05-24T00:23:10;94991.53;;;11.07;100.00
40245;BME280;25963;42.694;23.600;2023-05-24T00:25:35;94989.13;;;11.05;100.00
40245;BME280;25963;42.694;23.600;2023-05-24T00:28:01;95014.81;;;10.98;100.00
40245;BME280;25963;42.694;23.600;2023-05-24T00:30:26;95001.72;;;11.03;100.00
40245;BME280;25963;42.694;23.600;2023-05-24T00:32:52;94999.31;;;11.02;100.00
40245;BME280;25963;42.694;23.600;2023-05-24T00:35:17;94991.63;;;11.00;100.00
40245;BME280;25963;42.694;23.600;2023-05-24T00:37:43;95006.88;;;10.98;100.00
40245;BME280;25963;42.694;23.600;2023-05-24T00:40:12;95007.81;;;11.04;100.00
40245;BME280;25963;42.694;23.600;2023-05-24T00:42:38;94994.44;;;11.17;100.00
40245;BME280;25963;42.694;23.600;2023-05-24T00:45:04;94994.78;;;11.20;100.00
40245;BME280;25963;42.694;23.600;2023-05-24T00:47:29;94986.84;;;11.09;100.00
40245;BME280;25963;42.694;23.600;2023-05-24T00:49:55;95018.69;;;11.26;100.00
40245;BME280;25963;42.694;23.600;2023-05-24T00:52:21;94989.22;;;10.99;100.00
40245;BME280;25963;42.694;23.600;2023-05-24T00:54:47;95002.91;;;11.07;100.00
40245;BME280;25963;42.694;23.600;2023-05-24T00:57:13;94982.84;;;10.88;100.00
40245;BME280;25963;42.694;23.600;2023-05-24T00:59:39;94984.09;;;10.85;100.00
40245;BME280;25963;42.694;23.600;2023-05-24T01:02:05;95009.31;;;10.81;100.00
40245;BME280;25963;42.694;23.600;2023-05-24T01:04:31;95007.13;;;10.78;100.00
40245;BME280;25963;42.694;23.600;2023-05-24T01:12:58;95019.47;;;10.66;100.00
40245;BME280;25963;42.694;23.600;2023-05-24T01:18:23;95005.25;;;10.30;100.00
40245;BME280;25963;42.694;23.600;2023-05-24T01:21:09;95007.53;;;10.45;100.00
40245;BME280;25963;42.694;23.600;2023-05-24T01:27:11;95032.34;;;10.56;100.00
40245;BME280;25963;42.694;23.600;2023-05-24T01:29:37;95015.44;;;10.20;100.00
40245;BME280;25963;42.694;23.600;2023-05-24T01:32:04;95039.88;;;10.34;100.00
40245;BME280;25963;42.694;23.600;2023-05-24T01:34:29;95019.03;;;10.25;100.00
40245;BME280;25963;42.694;23.600;2023-05-24T01:36:55;95036.44;;;10.33;100.00
40245;BME280;25963;42.694;23.600;2023-05-24T01:39:24;94979.63;;;9.94;100.00
40245;BME280;25963;42.694;23.600;2023-05-24T01:47:33;94992.13;;;9.98;100.00
40245;BME280;25963;42.694;23.600;2023-05-24T01:50:08;94992.31;;;10.03;100.00
40245;BME280;25963;42.694;23.600;2023-05-24T01:52:36;94973.56;;;9.93;100.00
40245;BME280;25963;42.694;23.600;2023-05-24T01:55:04;95015.38;;;10.08;100.00
40245;BME280;25963;42.694;23.600;2023-05-24T01:57:33;95020.06;;;10.06;100.00
40245;BME280;25963;42.694;23.600;2023-05-24T02:00:03;95002.47;;;10.00;100.00
40245;BME280;25963;42.694;23.600;2023-05-24T02:02:30;94977.09;;;9.80;100.00
40245;BME280;25963;42.694;23.600;2023-05-24T02:04:55;94995.22;;;9.95;100.00
40245;BME280;25963;42.694;23.600;2023-05-24T02:07:21;95016.56;;;10.12;100.00
40245;BME280;25963;42.694;23.600;2023-05-24T02:09:46;94993.78;;;9.99;100.00
40245;BME280;25963;42.694;23.600;2023-05-24T02:12:12;94986.75;;;9.93;100.00
40245;BME280;25963;42.694;23.600;2023-05-24T02:14:40;95004.09;;;10.01;100.00
40245;BME280;25963;42.694;23.600;2023-05-24T02:17:06;95002.31;;;9.95;100.00
40245;BME280;25963;42.694;23.600;2023-05-24T02:19:47;95004.34;;;9.93;100.00
40245;BME280;25963;42.694;23.600;2023-05-24T02:22:15;94969.69;;;9.71;100.00
40245;BME280;25963;42.694;23.600;2023-05-24T02:24:41;94981.94;;;9.83;100.00
40245;BME280;25963;42.694;23.600;2023-05-24T02:27:10;94978.91;;;9.62;100.00
40245;BME280;25963;42.694;23.600;2023-05-24T02:29:38;94985.13;;;9.67;100.00
40245;BME280;25963;42.694;23.600;2023-05-24T02:32:06;94988.63;;;9.61;100.00
40245;BME280;25963;42.694;23.600;2023-05-24T02:34:38;95001.25;;;9.77;100.00
40245;BME280;25963;42.694;23.600;2023-05-24T02:37:04;95000.00;;;9.80;100.00
40245;BME280;25963;42.694;23.600;2023-05-24T02:39:30;94996.66;;;9.66;100.00
40245;BME280;25963;42.694;23.600;2023-05-24T02:41:56;95001.69;;;9.49;100.00
40245;BME280;25963;42.694;23.600;2023-05-24T02:44:21;95007.81;;;9.43;100.00
40245;BME280;25963;42.694;23.600;2023-05-24T02:46:46;94996.19;;;9.51;100.00
40245;BME280;25963;42.694;23.600;2023-05-24T02:49:15;94996.69;;;9.41;100.00
40245;BME280;25963;42.694;23.600;2023-05-24T02:51:43;94987.97;;;9.41;100.00
40245;BME280;25963;42.694;23.600;2023-05-24T02:54:09;94994.63;;;9.43;100.00
40245;BME280;25963;42.694;23.600;2023-05-24T02:56:34;95005.38;;;9.42;100.00
40245;BME280;25963;42.694;23.600;2023-05-24T02:59:04;94965.44;;;9.20;100.00
40245;BME280;25963;42.694;23.600;2023-05-24T03:01:30;94999.47;;;9.46;100.00
40245;BME280;25963;42.694;23.600;2023-05-24T03:03:55;95004.91;;;9.51;100.00
40245;BME280;25963;42.694;23.600;2023-05-24T03:06:20;94972.28;;;9.27;100.00
40245;BME280;25963;42.694;23.600;2023-05-24T03:08:46;94978.50;;;9.33;100.00
40245;BME280;25963;42.694;23.600;2023-05-24T03:11:13;95002.13;;;9.46;100.00
40245;BME280;25963;42.694;23.600;2023-05-24T03:13:39;95005.34;;;9.48;100.00
40245;BME280;25963;42.694;23.600;2023-05-24T03:16:05;95008.78;;;9.49;100.00
40245;BME280;25963;42.694;23.600;2023-05-24T03:18:33;94995.63;;;9.42;100.00
40245;BME280;25963;42.694;23.600;2023-05-24T03:20:59;95011.41;;;9.49;100.00
40245;BME280;25963;42.694;23.600;2023-05-24T03:23:24;95028.00;;;9.49;100.00
40245;BME280;25963;42.694;23.600;2023-05-24T03:25:50;95014.63;;;9.51;100.00
40245;BME280;25963;42.694;23.600;2023-05-24T03:28:15;95016.03;;;9.53;100.00
40245;BME280;25963;42.694;23.600;2023-05-24T03:30:40;95009.69;;;9.61;100.00
40245;BME280;25963;42.694;23.600;2023-05-24T03:33:06;95031.44;;;9.81;100.00
40245;BME280;25963;42.694;23.600;2023-05-24T03:35:34;95019.63;;;9.84;100.00
40245;BME280;25963;42.694;23.600;2023-05-24T03:38:00;95017.28;;;9.76;100.00
40245;BME280;25963;42.694;23.600;2023-05-24T03:40:28;95036.13;;;9.98;100.00
40245;BME280;25963;42.694;23.600;2023-05-24T03:42:56;94983.44;;;9.98;100.00
40245;BME280;25963;42.694;23.600;2023-05-24T03:45:22;95026.59;;;10.47;100.00
40245;BME280;25963;42.694;23.600;2023-05-24T03:47:50;95037.19;;;10.59;100.00
40245;BME280;25963;42.694;23.600;2023-05-24T03:50:16;95039.97;;;10.64;100.00
40245;BME280;25963;42.694;23.600;2023-05-24T03:52:42;95020.63;;;10.70;100.00
40245;BME280;25963;42.694;23.600;2023-05-24T03:55:08;95037.00;;;11.09;100.00
40245;BME280;25963;42.694;23.600;2023-05-24T03:57:45;95049.59;;;11.67;100.00
40245;BME280;25963;42.694;23.600;2023-05-24T04:00:28;95018.63;;;12.45;100.00
40245;BME280;25963;42.694;23.600;2023-05-24T04:02:54;95025.13;;;13.63;100.00
40245;BME280;25963;42.694;23.600;2023-05-24T04:05:20;95056.22;;;14.91;99.91
40245;BME280;25963;42.694;23.600;2023-05-24T04:07:45;95052.06;;;15.98;88.35
40245;BME280;25963;42.694;23.600;2023-05-24T04:10:11;95044.75;;;17.01;80.69
40245;BME280;25963;42.694;23.600;2023-05-24T04:15:28;95065.50;;;18.84;68.27
40245;BME280;25963;42.694;23.600;2023-05-24T04:17:54;95022.78;;;19.39;64.55
40245;BME280;25963;42.694;23.600;2023-05-24T04:20:25;95009.06;;;19.95;60.46
40245;BME280;25963;42.694;23.600;2023-05-24T04:22:52;95048.00;;;20.75;57.96
40245;BME280;25963;42.694;23.600;2023-05-24T04:25:19;95038.63;;;21.20;56.12
40245;BME280;25963;42.694;23.600;2023-05-24T04:27:47;95045.25;;;21.52;55.89
40245;BME280;25963;42.694;23.600;2023-05-24T04:30:14;95038.34;;;22.03;53.51
40245;BME280;25963;42.694;23.600;2023-05-24T04:32:42;95054.97;;;22.56;51.77
40245;BME280;25963;42.694;23.600;2023-05-24T04:35:11;95043.22;;;23.13;50.64
40245;BME280;25963;42.694;23.600;2023-05-24T04:37:36;95036.00;;;23.50;48.59
40245;BME280;25963;42.694;23.600;2023-05-24T04:40:02;95047.72;;;23.81;47.63
40245;BME280;25963;42.694;23.600;2023-05-24T04:42:28;95036.06;;;24.08;45.34
40245;BME280;25963;42.694;23.600;2023-05-24T04:44:56;95033.50;;;24.48;46.36
40245;BME280;25963;42.694;23.600;2023-05-24T04:47:21;95036.25;;;24.57;43.82
40245;BME280;25963;42.694;23.600;2023-05-24T04:49:46;95039.69;;;24.49;46.41
40245;BME280;25963;42.694;23.600;2023-05-24T04:52:12;95054.44;;;24.51;46.83
40245;BME280;25963;42.694;23.600;2023-05-24T04:54:37;95063.66;;;24.50;46.53
40245;BME280;25963;42.694;23.600;2023-05-24T04:57:03;95052.38;;;24.79;46.00
40245;BME280;25963;42.694;23.600;2023-05-24T04:59:28;95051.78;;;25.14;44.29
40245;BME280;25963;42.694;23.600;2023-05-24T05:01:54;95036.59;;;25.35;43.66
40245;BME280;25963;42.694;23.600;2023-05-24T05:04:20;95049.81;;;25.54;43.85
40245;BME280;25963;42.694;23.600;2023-05-24T05:06:45;95046.13;;;25.41;42.93
40245;BME280;25963;42.694;23.600;2023-05-24T05:09:12;95047.66;;;24.54;44.64
40245;BME280;25963;42.694;23.600;2023-05-24T05:11:39;95066.09;;;25.23;43.08
40245;BME280;25963;42.694;23.600;2023-05-24T05:14:05;95056.31;;;25.44;45.62
40245;BME280;25963;42.694;23.600;2023-05-24T05:16:30;95063.06;;;24.93;43.12
40245;BME280;25963;42.694;23.600;2023-05-24T05:18:56;95051.19;;;24.63;43.67
40245;BME280;25963;42.694;23.600;2023-05-24T05:21:22;95048.28;;;25.13;44.66
40245;BME280;25963;42.694;23.600;2023-05-24T05:23:47;95055.09;;;24.88;45.32
40245;BME280;25963;42.694;23.600;2023-05-24T05:26:13;95047.31;;;24.78;43.86
40245;BME280;25963;42.694;23.600;2023-05-24T05:28:38;95056.47;;;25.08;46.75
40245;BME280;25963;42.694;23.600;2023-05-24T05:31:03;95062.81;;;25.43;47.86
40245;BME280;25963;42.694;23.600;2023-05-24T05:33:32;95069.66;;;25.49;44.07
40245;BME280;25963;42.694;23.600;2023-05-24T05:35:58;95053.81;;;25.65;44.67
40245;BME280;25963;42.694;23.600;2023-05-24T05:38:25;95068.50;;;25.82;44.31
40245;BME280;25963;42.694;23.600;2023-05-24T05:40:51;95066.69;;;25.77;42.58
40245;BME280;25963;42.694;23.600;2023-05-24T05:43:16;95054.59;;;25.66;45.00
40245;BME280;25963;42.694;23.600;2023-05-24T05:45:42;95071.16;;;25.73;43.68
40245;BME280;25963;42.694;23.600;2023-05-24T05:48:07;95066.31;;;24.73;43.54
40245;BME280;25963;42.694;23.600;2023-05-24T05:50:38;95069.59;;;24.92;43.78
40245;BME280;25963;42.694;23.600;2023-05-24T05:53:06;95060.72;;;25.00;45.36
40245;BME280;25963;42.694;23.600;2023-05-24T05:55:32;95057.88;;;25.45;44.54
40245;BME280;25963;42.694;23.600;2023-05-24T05:57:57;95070.63;;;25.54;47.25
40245;BME280;25963;42.694;23.600;2023-05-24T06:00:23;95065.53;;;25.43;41.94
40245;BME280;25963;42.694;23.600;2023-05-24T06:02:48;95072.16;;;25.37;45.10
40245;BME280;25963;42.694;23.600;2023-05-24T06:05:14;95070.25;;;25.06;44.80
40245;BME280;25963;42.694;23.600;2023-05-24T06:07:51;95084.81;;;25.19;47.95
40245;BME280;25963;42.694;23.600;2023-05-24T06:10:26;95061.44;;;25.15;49.63
40245;BME280;25963;42.694;23.600;2023-05-24T06:12:52;95072.16;;;25.28;46.61
40245;BME280;25963;42.694;23.600;2023-05-24T06:15:23;95069.53;;;25.15;45.66
40245;BME280;25963;42.694;23.600;2023-05-24T06:17:49;95070.72;;;25.31;43.04
40245;BME280;25963;42.694;23.600;2023-05-24T06:20:16;95058.06;;;25.49;45.43
40245;BME280;25963;42.694;23.600;2023-05-24T06:22:57;95065.38;;;25.57;45.13
40245;BME280;25963;42.694;23.600;2023-05-24T06:25:24;95081.56;;;25.57;45.00
40245;BME280;25963;42.694;23.600;2023-05-24T06:27:54;95054.75;;;25.52;47.35
40245;BME280;25963;42.694;23.600;2023-05-24T06:30:40;95059.25;;;25.17;43.00
40245;BME280;25963;42.694;23.600;2023-05-24T06:33:06;95063.44;;;25.09;45.73
40245;BME280;25963;42.694;23.600;2023-05-24T06:35:32;95075.75;;;25.24;45.89
40245;BME280;25963;42.694;23.600;2023-05-24T06:37:57;95076.88;;;25.23;44.61
40245;BME280;25963;42.694;23.600;2023-05-24T06:40:24;95072.00;;;25.42;46.13
40245;BME280;25963;42.694;23.600;2023-05-24T06:42:49;95064.81;;;24.89;45.36
40245;BME280;25963;42.694;23.600;2023-05-24T06:45:18;95076.19;;;24.77;48.56
40245;BME280;25963;42.694;23.600;2023-05-24T06:47:43;95065.72;;;24.53;51.91
40245;BME280;25963;42.694;23.600;2023-05-24T06:50:10;95056.63;;;24.04;47.20
40245;BME280;25963;42.694;23.600;2023-05-24T06:52:42;95062.81;;;24.27;52.56
40245;BME280;25963;42.694;23.600;2023-05-24T06:55:08;95070.66;;;24.37;50.40
40245;BME280;25963;42.694;23.600;2023-05-24T06:57:34;95060.91;;;24.28;51.61
40245;BME280;25963;42.694;23.600;2023-05-24T06:59:59;95072.66;;;24.09;57.17
40245;BME280;25963;42.694;23.600;2023-05-24T07:02:25;95059.69;;;24.34;60.82
40245;BME280;25963;42.694;23.600;2023-05-24T07:04:52;95060.00;;;24.32;56.70
40245;BME280;25963;42.694;23.600;2023-05-24T07:07:19;95065.22;;;24.51;57.98
40245;BME280;25963;42.694;23.600;2023-05-24T07:09:44;95055.28;;;24.38;53.43
40245;BME280;25963;42.694;23.600;2023-05-24T07:12:10;95055.06;;;24.48;50.50
40245;BME280;25963;42.694;23.600;2023-05-24T07:14:36;95071.78;;;24.59;50.44
40245;BME280;25963;42.694;23.600;2023-05-24T07:17:01;95050.56;;;24.44;59.41
40245;BME280;25963;42.694;23.600;2023-05-24T07:19:27;95049.34;;;22.86;61.29
40245;BME280;25963;42.694;23.600;2023-05-24T07:21:54;95040.38;;;23.73;57.79
40245;BME280;25963;42.694;23.600;2023-05-24T07:24:20;95056.25;;;23.97;55.97
40245;BME280;25963;42.694;23.600;2023-05-24T07:26:47;95058.66;;;24.21;52.25
40245;BME280;25963;42.694;23.600;2023-05-24T07:29:13;95060.06;;;24.41;57.70
40245;BME280;25963;42.694;23.600;2023-05-24T07:31:38;95067.44;;;24.49;60.75
40245;BME280;25963;42.694;23.600;2023-05-24T07:34:04;95070.19;;;24.58;52.38
40245;BME280;25963;42.694;23.600;2023-05-24T07:36:29;95075.84;;;24.48;59.88
40245;BME280;25963;42.694;23.600;2023-05-24T07:38:57;95047.69;;;24.40;58.66
40245;BME280;25963;42.694;23.600;2023-05-24T07:41:26;95076.25;;;24.64;56.10
40245;BME280;25963;42.694;23.600;2023-05-24T07:43:55;95067.19;;;24.59;61.09
40245;BME280;25963;42.694;23.600;2023-05-24T07:46:21;95075.25;;;24.82;57.53
40245;BME280;25963;42.694;23.600;2023-05-24T07:48:47;95049.72;;;24.88;58.27
40245;BME280;25963;42.694;23.600;2023-05-24T07:51:12;95051.44;;;24.84;60.82
40245;BME280;25963;42.694;23.600;2023-05-24T07:53:38;95053.88;;;24.94;54.84
40245;BME280;25963;42.694;23.600;2023-05-24T07:56:04;95048.34;;;24.99;57.39
40245;BME280;25963;42.694;23.600;2023-05-24T07:58:32;95052.09;;;25.21;59.61
40245;BME280;25963;42.694;23.600;2023-05-24T08:00:57;95038.53;;;25.43;60.28
40245;BME280;25963;42.694;23.600;2023-05-24T08:03:23;95044.06;;;25.47;55.70
40245;BME280;25963;42.694;23.600;2023-05-24T08:05:50;95063.44;;;24.47;51.83
40245;BME280;25963;42.694;23.600;2023-05-24T08:08:16;95063.03;;;24.53;58.32
40245;BME280;25963;42.694;23.600;2023-05-24T08:10:41;95049.25;;;24.86;65.75
40245;BME280;25963;42.694;23.600;2023-05-24T08:13:06;95057.69;;;25.33;63.19
40245;BME280;25963;42.694;23.600;2023-05-24T08:15:32;95038.03;;;25.01;59.30
40245;BME280;25963;42.694;23.600;2023-05-24T08:17:58;95040.97;;;25.14;58.84
40245;BME280;25963;42.694;23.600;2023-05-24T08:20:23;95044.88;;;25.56;56.83
40245;BME280;25963;42.694;23.600;2023-05-24T08:22:49;95039.72;;;24.89;52.04
40245;BME280;25963;42.694;23.600;2023-05-24T08:25:14;95038.97;;;25.45;54.55
40245;BME280;25963;42.694;23.600;2023-05-24T08:27:40;95033.00;;;25.74;60.66
40245;BME280;25963;42.694;23.600;2023-05-24T08:30:06;95057.50;;;25.95;55.02
40245;BME280;25963;42.694;23.600;2023-05-24T08:32:32;95056.72;;;26.12;59.25
40245;BME280;25963;42.694;23.600;2023-05-24T08:34:58;95036.38;;;25.98;64.19
40245;BME280;25963;42.694;23.600;2023-05-24T08:37:24;95050.03;;;25.92;58.48
40245;BME280;25963;42.694;23.600;2023-05-24T08:39:49;95044.16;;;26.25;53.04
40245;BME280;25963;42.694;23.600;2023-05-24T08:42:23;95046.22;;;26.37;54.58
40245;BME280;25963;42.694;23.600;2023-05-24T08:44:57;95042.38;;;26.47;54.81
40245;BME280;25963;42.694;23.600;2023-05-24T08:47:28;95042.50;;;26.68;48.98
40245;BME280;25963;42.694;23.600;2023-05-24T08:49:55;95033.84;;;26.92;52.37
40245;BME280;25963;42.694;23.600;2023-05-24T08:52:21;95036.59;;;26.74;48.68
40245;BME280;25963;42.694;23.600;2023-05-24T08:54:48;95048.88;;;26.80;47.58
40245;BME280;25963;42.694;23.600;2023-05-24T08:57:14;95031.09;;;27.00;52.86
40245;BME280;25963;42.694;23.600;2023-05-24T08:59:41;95032.63;;;27.19;44.93
40245;BME280;25963;42.694;23.600;2023-05-24T09:02:09;95030.88;;;27.52;45.80
40245;BME280;25963;42.694;23.600;2023-05-24T09:04:38;95026.28;;;27.74;47.77
40245;BME280;25963;42.694;23.600;2023-05-24T09:07:08;95032.41;;;27.62;42.96
40245;BME280;25963;42.694;23.600;2023-05-24T09:09:34;95041.31;;;27.92;38.04
40245;BME280;25963;42.694;23.600;2023-05-24T09:12:04;95021.34;;;27.97;38.49
40245;BME280;25963;42.694;23.600;2023-05-24T09:14:30;95035.84;;;28.01;40.89
40245;BME280;25963;42.694;23.600;2023-05-24T09:16:59;95021.75;;;27.87;37.43
40245;BME280;25963;42.694;23.600;2023-05-24T09:19:25;95014.22;;;27.63;35.99
40245;BME280;25963;42.694;23.600;2023-05-24T09:21:52;95039.69;;;28.00;38.12
40245;BME280;25963;42.694;23.600;2023-05-24T09:24:18;95023.16;;;27.34;35.22
40245;BME280;25963;42.694;23.600;2023-05-24T09:26:48;95015.47;;;27.95;42.77
40245;BME280;25963;42.694;23.600;2023-05-24T09:29:14;95026.81;;;27.67;31.71
40245;BME280;25963;42.694;23.600;2023-05-24T09:31:41;95022.22;;;27.89;36.13
40245;BME280;25963;42.694;23.600;2023-05-24T09:34:13;95031.19;;;28.22;38.61
40245;BME280;25963;42.694;23.600;2023-05-24T09:36:40;95026.53;;;28.44;38.89
40245;BME280;25963;42.694;23.600;2023-05-24T09:39:09;95005.88;;;28.18;35.61
40245;BME280;25963;42.694;23.600;2023-05-24T09:41:35;95024.50;;;28.41;41.50
40245;BME280;25963;42.694;23.600;2023-05-24T09:44:01;95029.25;;;28.23;34.99
40245;BME280;25963;42.694;23.600;2023-05-24T09:46:27;95024.69;;;28.69;37.63
40245;BME280;25963;42.694;23.600;2023-05-24T09:49:00;95014.38;;;28.62;36.84
40245;BME280;25963;42.694;23.600;2023-05-24T09:51:28;95015.38;;;28.46;36.73
40245;BME280;25963;42.694;23.600;2023-05-24T09:53:56;95015.00;;;28.47;32.59
40245;BME280;25963;42.694;23.600;2023-05-24T09:56:22;95010.56;;;28.76;38.18
40245;BME280;25963;42.694;23.600;2023-05-24T09:58:47;95004.19;;;28.59;33.32
40245;BME280;25963;42.694;23.600;2023-05-24T10:01:13;94994.53;;;28.16;33.42
40245;BME280;25963;42.694;23.600;2023-05-24T10:03:57;94996.59;;;28.53;40.90
40245;BME280;25963;42.694;23.600;2023-05-24T10:06:23;95016.59;;;28.94;43.08
40245;BME280;25963;42.694;23.600;2023-05-24T10:08:50;95004.38;;;29.00;37.04
40245;BME280;25963;42.694;23.600;2023-05-24T10:11:17;95010.41;;;29.18;40.11
40245;BME280;25963;42.694;23.600;2023-05-24T10:13:43;95004.94;;;28.93;36.29
40245;BME280;25963;42.694;23.600;2023-05-24T10:16:08;95008.38;;;29.27;34.17
40245;BME280;25963;42.694;23.600;2023-05-24T10:18:34;94987.88;;;29.29;37.68
40245;BME280;25963;42.694;23.600;2023-05-24T10:21:00;95007.06;;;29.61;37.74
40245;BME280;25963;42.694;23.600;2023-05-24T10:23:29;94989.97;;;29.61;41.91
40245;BME280;25963;42.694;23.600;2023-05-24T10:26:04;94993.19;;;29.63;35.26
40245;BME280;25963;42.694;23.600;2023-05-24T10:28:45;94990.38;;;29.47;30.10
40245;BME280;25963;42.694;23.600;2023-05-24T10:31:31;94991.03;;;29.56;30.60
40245;BME280;25963;42.694;23.600;2023-05-24T10:34:29;95000.91;;;29.24;29.52
40245;BME280;25963;42.694;23.600;2023-05-24T10:37:16;94992.50;;;29.17;31.90
40245;BME280;25963;42.694;23.600;2023-05-24T10:39:42;94969.84;;;29.49;33.46
40245;BME280;25963;42.694;23.600;2023-05-24T10:42:08;94982.06;;;29.55;32.18
40245;BME280;25963;42.694;23.600;2023-05-24T10:44:34;94979.16;;;29.36;36.21
40245;BME280;25963;42.694;23.600;2023-05-24T10:47:13;94960.41;;;29.84;36.07
40245;BME280;25963;42.694;23.600;2023-05-24T10:50:00;94957.88;;;29.38;33.06
40245;BME280;25963;42.694;23.600;2023-05-24T10:52:40;94962.88;;;29.89;35.06
40245;BME280;25963;42.694;23.600;2023-05-24T10:55:07;94964.22;;;30.23;30.19
40245;BME280;25963;42.694;23.600;2023-05-24T10:57:37;94949.13;;;29.97;33.12
40245;BME280;25963;42.694;23.600;2023-05-24T11:03:05;94960.78;;;30.70;30.47
40245;BME280;25963;42.694;23.600;2023-05-24T11:05:53;94964.22;;;30.67;34.35
40245;BME280;25963;42.694;23.600;2023-05-24T11:08:33;94959.34;;;30.29;27.03
40245;BME280;25963;42.694;23.600;2023-05-24T11:11:14;94965.31;;;29.66;30.65
40245;BME280;25963;42.694;23.600;2023-05-24T11:13:46;94967.94;;;29.25;29.68
40245;BME280;25963;42.694;23.600;2023-05-24T11:16:32;94941.94;;;29.24;31.97
40245;BME280;25963;42.694;23.600;2023-05-24T11:19:15;94973.41;;;28.10;33.77
40245;BME280;25963;42.694;23.600;2023-05-24T11:21:43;94965.31;;;28.22;31.24
40245;BME280;25963;42.694;23.600;2023-05-24T11:24:10;94968.84;;;28.35;34.35
40245;BME280;25963;42.694;23.600;2023-05-24T11:26:36;94941.44;;;28.15;33.21
40245;BME280;25963;42.694;23.600;2023-05-24T11:29:03;94946.22;;;28.18;35.54
40245;BME280;25963;42.694;23.600;2023-05-24T11:31:29;94953.09;;;28.61;36.39
40245;BME280;25963;42.694;23.600;2023-05-24T11:33:55;94960.34;;;28.57;30.53
40245;BME280;25963;42.694;23.600;2023-05-24T11:36:21;94961.53;;;28.48;33.42
40245;BME280;25963;42.694;23.600;2023-05-24T11:38:47;94943.25;;;28.23;31.68
40245;BME280;25963;42.694;23.600;2023-05-24T11:41:16;94940.66;;;28.60;35.07
40245;BME280;25963;42.694;23.600;2023-05-24T11:43:41;94923.72;;;28.88;32.64
40245;BME280;25963;42.694;23.600;2023-05-24T11:46:07;94937.28;;;29.25;33.17
40245;BME280;25963;42.694;23.600;2023-05-24T11:48:33;94944.19;;;29.22;35.77
40245;BME280;25963;42.694;23.600;2023-05-24T11:50:59;94949.91;;;28.47;31.06
40245;BME280;25963;42.694;23.600;2023-05-24T11:53:24;94940.31;;;28.16;30.27
40245;BME280;25963;42.694;23.600;2023-05-24T11:55:52;94943.34;;;28.15;36.68
40245;BME280;25963;42.694;23.600;2023-05-24T11:58:22;94945.81;;;28.08;38.15
40245;BME280;25963;42.694;23.600;2023-05-24T12:00:49;94945.16;;;28.44;34.30
40245;BME280;25963;42.694;23.600;2023-05-24T12:03:15;94918.28;;;28.51;35.04
40245;BME280;25963;42.694;23.600;2023-05-24T12:05:42;94925.97;;;28.61;35.68
40245;BME280;25963;42.694;23.600;2023-05-24T12:08:09;94903.56;;;29.01;35.85
40245;BME280;25963;42.694;23.600;2023-05-24T12:10:38;94903.00;;;28.83;31.75
40245;BME280;25963;42.694;23.600;2023-05-24T12:13:21;94912.84;;;29.25;33.57
40245;BME280;25963;42.694;23.600;2023-05-24T12:15:54;94920.53;;;28.61;31.60
40245;BME280;25963;42.694;23.600;2023-05-24T12:18:21;94914.63;;;28.47;35.11
40245;BME280;25963;42.694;23.600;2023-05-24T12:20:48;94924.00;;;28.04;33.53
40245;BME280;25963;42.694;23.600;2023-05-24T12:23:14;94911.81;;;27.56;37.04
40245;BME280;25963;42.694;23.600;2023-05-24T12:25:39;94911.22;;;27.00;41.93
40245;BME280;25963;42.694;23.600;2023-05-24T12:28:05;94924.41;;;26.80;38.68
40245;BME280;25963;42.694;23.600;2023-05-24T12:30:30;94892.31;;;26.61;42.16
40245;BME280;25963;42.694;23.600;2023-05-24T12:32:56;94893.03;;;26.32;43.68
40245;BME280;25963;42.694;23.600;2023-05-24T12:35:22;94905.38;;;26.12;43.71
40245;BME280;25963;42.694;23.600;2023-05-24T12:37:56;94900.03;;;26.42;43.16
40245;BME280;25963;42.694;23.600;2023-05-24T12:40:22;94896.28;;;26.08;41.98
40245;BME280;25963;42.694;23.600;2023-05-24T12:42:55;94924.06;;;26.35;43.18
40245;BME280;25963;42.694;23.600;2023-05-24T12:45:26;94904.75;;;25.63;42.58
40245;BME280;25963;42.694;23.600;2023-05-24T12:47:56;94904.31;;;25.44;44.39
40245;BME280;25963;42.694;23.600;2023-05-24T12:50:24;94910.31;;;25.76;44.58
40245;BME280;25963;42.694;23.600;2023-05-24T12:52:51;94924.31;;;25.86;41.02
40245;BME280;25963;42.694;23.600;2023-05-24T12:55:25;94891.88;;;25.69;42.41
40245;BME280;25963;42.694;23.600;2023-05-24T12:57:51;94896.19;;;25.70;41.91
40245;BME280;25963;42.694;23.600;2023-05-24T13:00:19;94913.25;;;26.26;40.81
40245;BME280;25963;42.694;23.600;2023-05-24T13:02:45;94897.94;;;25.83;40.13
40245;BME280;25963;42.694;23.600;2023-05-24T13:05:11;94896.50;;;25.68;39.55
40245;BME280;25963;42.694;23.600;2023-05-24T13:07:37;94901.59;;;25.87;39.38
40245;BME280;25963;42.694;23.600;2023-05-24T13:10:08;94901.44;;;25.92;37.80
40245;BME280;25963;42.694;23.600;2023-05-24T13:12:34;94867.41;;;25.91;44.43
40245;BME280;25963;42.694;23.600;2023-05-24T13:15:00;94902.84;;;25.99;41.67
40245;BME280;25963;42.694;23.600;2023-05-24T13:17:25;94887.06;;;26.18;40.01